William — WDF2392 — position and weather

sailwx.info

Track history (hours):
 
Tides and Currents Weather Stations Pressure Air Temp Water Temp Dewpoint Dewpoint Depression Visibility Wind Speed Wind Dir Waves Ship Positions

William

Owner: Enterprise Marine Services, LLC, San Antonio, TX. More information available from US FCC via Universal Licensing System and Coast Guard Vessel Documentation Center.

Last reported at 2017-Sep-11 16:16 UTC. Time now 2017-Sep-22 08:17 UTC.
Position N 29°33' W 090°28'.
Warning: this ship's position is 10 days out of date.

Length 22 m; draft 2.7 m.

Type: Towing. MMSI: 367423260.

Date/timePositionNaut miles runAvg speedWind from/ knotsBaromVisibWave heightAir tempDewpointWater temp
2017-Sep-11 16:16N 29°33' W 090°28'2 6.7
2017-Sep-11 16:00N 29°34' W 090°30'3 6.5
2017-Sep-11 15:29N 29°34' W 090°34'3 5.8
2017-Sep-11 15:00N 29°35' W 090°37'1 1.9
2017-Sep-11 14:30N 29°35' W 090°38'2 4.9
2017-Sep-11 14:00N 29°36' W 090°41'2 3.6
2017-Sep-11 13:30N 29°36' W 090°43'2 4.5
2017-Sep-11 13:00N 29°34' W 090°44'3 6.0
2017-Sep-11 12:30N 29°32' W 090°47'67 5.0
2017-Sep-10 23:03N 29°49' W 092°02'0 6.5
2017-Sep-10 23:00N 29°49' W 092°02'3 6.5
2017-Sep-10 22:30N 29°48' W 092°06'3 6.3
2017-Sep-10 22:00N 29°47' W 092°09'3 6.3
2017-Sep-10 21:30N 29°47' W 092°13'3 5.6
2017-Sep-10 20:53N 29°49' W 092°17'43 6.2
2017-Sep-10 13:57N 29°56' W 093°06'5 4.8
2017-Sep-10 12:50N 29°58' W 093°12'2 5.4
2017-Sep-10 12:30N 29°60' W 093°13'3 5.3
2017-Sep-10 11:57N 30°02' W 093°15'6 3.6
2017-Sep-10 10:17N 30°04' W 093°22'2 7.5
2017-Sep-10 10:00N 30°04' W 093°24'1 2.8
2017-Sep-10 09:31N 30°04' W 093°26'4 6.5
2017-Sep-10 08:55N 30°04' W 093°30'11 1.7
2017-Sep-10 02:37N 30°03' W 093°42'1 4.2
2017-Sep-10 02:24N 30°03' W 093°43'  
2017-Sep-06 19:47N 30°04' W 093°41'2 6.0
2017-Sep-06 19:31N 30°04' W 093°39'3 5.2
2017-Sep-06 19:00N 30°04' W 093°36'2 4.9
2017-Sep-06 18:30N 30°04' W 093°33'2 4.8
2017-Sep-06 18:01N 30°04' W 093°31'2 4.5
2017-Sep-06 17:31N 30°04' W 093°28'2 4.2
2017-Sep-06 17:01N 30°04' W 093°26'2 3.9
2017-Sep-06 16:30N 30°04' W 093°23'2 3.3
2017-Sep-06 16:00N 30°04' W 093°22'2 4.0
2017-Sep-06 15:31N 30°05' W 093°20'2 3.6
2017-Sep-06 15:01N 30°06' W 093°18'0 0.0
2017-Sep-06 14:31N 30°06' W 093°18'0 0.1
2017-Sep-06 14:01N 30°06' W 093°18'0 0.0
2017-Sep-06 13:30N 30°06' W 093°18'0 0.0
2017-Sep-06 13:01N 30°06' W 093°18'0 0.0
2017-Sep-06 12:30N 30°06' W 093°18'0 0.1
2017-Sep-06 12:00N 30°06' W 093°18'0 0.1
2017-Sep-06 11:31N 30°06' W 093°18'0 0.0
2017-Sep-06 11:00N 30°06' W 093°18'0 0.0
2017-Sep-06 10:31N 30°06' W 093°18'0 0.0
2017-Sep-06 10:01N 30°06' W 093°18'0 0.0
2017-Sep-06 09:30N 30°06' W 093°18'0 0.0
2017-Sep-06 09:01N 30°06' W 093°18'0 0.0
2017-Sep-06 08:30N 30°06' W 093°18'0 0.0
2017-Sep-06 08:00N 30°06' W 093°18'0 0.0
2017-Sep-06 07:30N 30°06' W 093°18'0 0.0
2017-Sep-06 07:01N 30°06' W 093°18'0 0.0
2017-Sep-06 06:30N 30°06' W 093°18'0 0.0
2017-Sep-06 06:00N 30°06' W 093°18'0 0.1
2017-Sep-06 05:31N 30°06' W 093°18'0 0.0
2017-Sep-06 05:01N 30°06' W 093°18'0 0.0
2017-Sep-06 04:31N 30°06' W 093°18'0 0.2
2017-Sep-06 04:00N 30°06' W 093°18'0 0.1
2017-Sep-06 03:31N 30°06' W 093°18'0 0.0
2017-Sep-06 03:01N 30°06' W 093°18'0 0.0
2017-Sep-06 02:31N 30°06' W 093°18'0 0.0
2017-Sep-06 02:01N 30°06' W 093°18'0 0.0
2017-Sep-06 01:30N 30°06' W 093°18'0 0.0
2017-Sep-06 01:00N 30°06' W 093°18'0 0.0
2017-Sep-06 00:31N 30°06' W 093°18'0 0.0
2017-Sep-06 00:01N 30°06' W 093°18'0 0.0
2017-Sep-05 23:31N 30°06' W 093°18'0 0.0
2017-Sep-05 23:00N 30°06' W 093°18'0 0.0
2017-Sep-05 22:31N 30°06' W 093°18'0 0.0
2017-Sep-05 22:01N 30°06' W 093°18'0 0.0
2017-Sep-05 21:31N 30°06' W 093°18'0 0.0
2017-Sep-05 21:00N 30°06' W 093°18'0 0.0
2017-Sep-05 20:30N 30°06' W 093°18'0 0.0
2017-Sep-05 20:00N 30°06' W 093°18'0 0.0
2017-Sep-05 19:30N 30°06' W 093°18'0 0.0
2017-Sep-05 19:00N 30°06' W 093°18'0 0.0
2017-Sep-05 18:30N 30°06' W 093°18'0 0.0
2017-Sep-05 18:00N 30°06' W 093°18'0 0.0
2017-Sep-05 17:31N 30°06' W 093°18'0 0.0
2017-Sep-05 17:01N 30°06' W 093°18'0 0.0
2017-Sep-05 16:30N 30°06' W 093°18'0 0.0
2017-Sep-05 16:01N 30°06' W 093°18'0 0.0
2017-Sep-05 15:30N 30°06' W 093°18'0 0.0
2017-Sep-05 15:01N 30°06' W 093°18'0 0.0
2017-Sep-05 14:31N 30°06' W 093°18'0 0.0
2017-Sep-05 14:00N 30°06' W 093°18'0 0.0
2017-Sep-05 13:31N 30°06' W 093°18'0 0.0
2017-Sep-05 13:00N 30°06' W 093°18'0 0.0
2017-Sep-05 12:31N 30°06' W 093°18'0 0.0
2017-Sep-05 12:01N 30°06' W 093°18'0 0.0
2017-Sep-05 11:31N 30°06' W 093°18'0 0.0
2017-Sep-05 11:01N 30°06' W 093°18'0 0.0
2017-Sep-05 10:31N 30°06' W 093°18'0 0.0
2017-Sep-05 10:01N 30°06' W 093°18'0 0.0
2017-Sep-05 09:31N 30°06' W 093°18'0 0.0
2017-Sep-05 09:01N 30°06' W 093°18'0 0.0
2017-Sep-05 08:30N 30°06' W 093°18'0 0.0
2017-Sep-05 08:00N 30°06' W 093°18'0 0.0
2017-Sep-05 07:30N 30°06' W 093°18'0 0.3
2017-Sep-05 07:01N 30°06' W 093°18'2 4.4
2017-Sep-05 06:31N 30°04' W 093°16'3 5.3
2017-Sep-05 06:00N 30°02' W 093°15'3 5.4
2017-Sep-05 05:30N 29°60' W 093°13'4 6.3
2017-Sep-05 04:56N 29°57' W 093°10'2 5.8
2017-Sep-05 04:30N 29°56' W 093°08'40 5.2
2017-Sep-04 20:46N 29°51' W 092°22'1 4.5
2017-Sep-04 20:26N 29°51' W 092°20'2 4.3
2017-Sep-04 19:56N 29°50' W 092°18'2 4.8
2017-Sep-04 19:31N 29°49' W 092°16'3 5.2
2017-Sep-04 19:01N 29°48' W 092°13'2 3.9
2017-Sep-04 18:30N 29°47' W 092°11'1 1.7
2017-Sep-04 18:01N 29°47' W 092°10'3 5.4
2017-Sep-04 17:30N 29°47' W 092°07'3 5.5
2017-Sep-04 17:01N 29°48' W 092°04'60 5.0
2017-Sep-04 05:02N 29°34' W 090°57'0 5.8
2017-Sep-04 05:00N 29°34' W 090°57'3 5.8
2017-Sep-04 04:30N 29°33' W 090°54'3 5.4
2017-Sep-04 04:00N 29°32' W 090°51'3 5.5
2017-Sep-04 03:30N 29°32' W 090°48'2 4.1
2017-Sep-04 03:00N 29°33' W 090°45'2 3.2
2017-Sep-04 02:31N 29°34' W 090°44'1 2.9
2017-Sep-04 02:01N 29°35' W 090°43'2 3.8
2017-Sep-04 01:31N 29°37' W 090°42'2 4.0
2017-Sep-04 01:01N 29°36' W 090°40'2 5.0
2017-Sep-04 00:30N 29°35' W 090°38'2 4.4
2017-Sep-04 00:00N 29°35' W 090°35'3 5.2
2017-Sep-03 23:30N 29°34' W 090°32'  
Track history (hours):
 
Tides and Currents Weather Stations Pressure Air Temp Water Temp Dewpoint Dewpoint Depression Visibility Wind Speed Wind Dir Waves Ship Positions

William

Owner: Enterprise Marine Services, LLC, San Antonio, TX. More information available from US FCC via Universal Licensing System and Coast Guard Vessel Documentation Center.

Last reported at 2017-Sep-11 16:16 UTC. Time now 2017-Sep-22 08:17 UTC.
Position N 29°33' W 090°28'.
Warning: this ship's position is 10 days out of date.

Length 22 m; draft 2.7 m.

Type: Towing. MMSI: 367423260.

Date/timePositionNaut miles runAvg speedWind from/ knotsBaromVisibWave heightAir tempDewpointWater temp
2017-Sep-11 16:16N 29°33' W 090°28'2 6.7
2017-Sep-11 16:00N 29°34' W 090°30'3 6.5
2017-Sep-11 15:29N 29°34' W 090°34'3 5.8
2017-Sep-11 15:00N 29°35' W 090°37'1 1.9
2017-Sep-11 14:30N 29°35' W 090°38'2 4.9
2017-Sep-11 14:00N 29°36' W 090°41'2 3.6
2017-Sep-11 13:30N 29°36' W 090°43'2 4.5
2017-Sep-11 13:00N 29°34' W 090°44'3 6.0
2017-Sep-11 12:30N 29°32' W 090°47'67 5.0
2017-Sep-10 23:03N 29°49' W 092°02'0 6.5
2017-Sep-10 23:00N 29°49' W 092°02'3 6.5
2017-Sep-10 22:30N 29°48' W 092°06'3 6.3
2017-Sep-10 22:00N 29°47' W 092°09'3 6.3
2017-Sep-10 21:30N 29°47' W 092°13'3 5.6
2017-Sep-10 20:53N 29°49' W 092°17'43 6.2
2017-Sep-10 13:57N 29°56' W 093°06'5 4.8
2017-Sep-10 12:50N 29°58' W 093°12'2 5.4
2017-Sep-10 12:30N 29°60' W 093°13'3 5.3
2017-Sep-10 11:57N 30°02' W 093°15'6 3.6
2017-Sep-10 10:17N 30°04' W 093°22'2 7.5
2017-Sep-10 10:00N 30°04' W 093°24'1 2.8
2017-Sep-10 09:31N 30°04' W 093°26'4 6.5
2017-Sep-10 08:55N 30°04' W 093°30'11 1.7
2017-Sep-10 02:37N 30°03' W 093°42'1 4.2
2017-Sep-10 02:24N 30°03' W 093°43'  
2017-Sep-06 19:47N 30°04' W 093°41'2 6.0
2017-Sep-06 19:31N 30°04' W 093°39'3 5.2
2017-Sep-06 19:00N 30°04' W 093°36'2 4.9
2017-Sep-06 18:30N 30°04' W 093°33'2 4.8
2017-Sep-06 18:01N 30°04' W 093°31'2 4.5
2017-Sep-06 17:31N 30°04' W 093°28'2 4.2
2017-Sep-06 17:01N 30°04' W 093°26'2 3.9
2017-Sep-06 16:30N 30°04' W 093°23'2 3.3
2017-Sep-06 16:00N 30°04' W 093°22'2 4.0
2017-Sep-06 15:31N 30°05' W 093°20'2 3.6
2017-Sep-06 15:01N 30°06' W 093°18'0 0.0
2017-Sep-06 14:31N 30°06' W 093°18'0 0.1
2017-Sep-06 14:01N 30°06' W 093°18'0 0.0
2017-Sep-06 13:30N 30°06' W 093°18'0 0.0
2017-Sep-06 13:01N 30°06' W 093°18'0 0.0
2017-Sep-06 12:30N 30°06' W 093°18'0 0.1
2017-Sep-06 12:00N 30°06' W 093°18'0 0.1
2017-Sep-06 11:31N 30°06' W 093°18'0 0.0
2017-Sep-06 11:00N 30°06' W 093°18'0 0.0
2017-Sep-06 10:31N 30°06' W 093°18'0 0.0
2017-Sep-06 10:01N 30°06' W 093°18'0 0.0
2017-Sep-06 09:30N 30°06' W 093°18'0 0.0
2017-Sep-06 09:01N 30°06' W 093°18'0 0.0
2017-Sep-06 08:30N 30°06' W 093°18'0 0.0
2017-Sep-06 08:00N 30°06' W 093°18'0 0.0
2017-Sep-06 07:30N 30°06' W 093°18'0 0.0
2017-Sep-06 07:01N 30°06' W 093°18'0 0.0
2017-Sep-06 06:30N 30°06' W 093°18'0 0.0
2017-Sep-06 06:00N 30°06' W 093°18'0 0.1
2017-Sep-06 05:31N 30°06' W 093°18'0 0.0
2017-Sep-06 05:01N 30°06' W 093°18'0 0.0
2017-Sep-06 04:31N 30°06' W 093°18'0 0.2
2017-Sep-06 04:00N 30°06' W 093°18'0 0.1
2017-Sep-06 03:31N 30°06' W 093°18'0 0.0
2017-Sep-06 03:01N 30°06' W 093°18'0 0.0
2017-Sep-06 02:31N 30°06' W 093°18'0 0.0
2017-Sep-06 02:01N 30°06' W 093°18'0 0.0
2017-Sep-06 01:30N 30°06' W 093°18'0 0.0
2017-Sep-06 01:00N 30°06' W 093°18'0 0.0
2017-Sep-06 00:31N 30°06' W 093°18'0 0.0
2017-Sep-06 00:01N 30°06' W 093°18'0 0.0
2017-Sep-05 23:31N 30°06' W 093°18'0 0.0
2017-Sep-05 23:00N 30°06' W 093°18'0 0.0
2017-Sep-05 22:31N 30°06' W 093°18'0 0.0
2017-Sep-05 22:01N 30°06' W 093°18'0 0.0
2017-Sep-05 21:31N 30°06' W 093°18'0 0.0
2017-Sep-05 21:00N 30°06' W 093°18'0 0.0
2017-Sep-05 20:30N 30°06' W 093°18'0 0.0
2017-Sep-05 20:00N 30°06' W 093°18'0 0.0
2017-Sep-05 19:30N 30°06' W 093°18'0 0.0
2017-Sep-05 19:00N 30°06' W 093°18'0 0.0
2017-Sep-05 18:30N 30°06' W 093°18'0 0.0
2017-Sep-05 18:00N 30°06' W 093°18'0 0.0
2017-Sep-05 17:31N 30°06' W 093°18'0 0.0
2017-Sep-05 17:01N 30°06' W 093°18'0 0.0
2017-Sep-05 16:30N 30°06' W 093°18'0 0.0
2017-Sep-05 16:01N 30°06' W 093°18'0 0.0
2017-Sep-05 15:30N 30°06' W 093°18'0 0.0
2017-Sep-05 15:01N 30°06' W 093°18'0 0.0
2017-Sep-05 14:31N 30°06' W 093°18'0 0.0
2017-Sep-05 14:00N 30°06' W 093°18'0 0.0
2017-Sep-05 13:31N 30°06' W 093°18'0 0.0
2017-Sep-05 13:00N 30°06' W 093°18'0 0.0
2017-Sep-05 12:31N 30°06' W 093°18'0 0.0
2017-Sep-05 12:01N 30°06' W 093°18'0 0.0
2017-Sep-05 11:31N 30°06' W 093°18'0 0.0
2017-Sep-05 11:01N 30°06' W 093°18'0 0.0
2017-Sep-05 10:31N 30°06' W 093°18'0 0.0
2017-Sep-05 10:01N 30°06' W 093°18'0 0.0
2017-Sep-05 09:31N 30°06' W 093°18'0 0.0
2017-Sep-05 09:01N 30°06' W 093°18'0 0.0
2017-Sep-05 08:30N 30°06' W 093°18'0 0.0
2017-Sep-05 08:00N 30°06' W 093°18'0 0.0
2017-Sep-05 07:30N 30°06' W 093°18'0 0.3
2017-Sep-05 07:01N 30°06' W 093°18'2 4.4
2017-Sep-05 06:31N 30°04' W 093°16'3 5.3
2017-Sep-05 06:00N 30°02' W 093°15'3 5.4
2017-Sep-05 05:30N 29°60' W 093°13'4 6.3
2017-Sep-05 04:56N 29°57' W 093°10'2 5.8
2017-Sep-05 04:30N 29°56' W 093°08'40 5.2
2017-Sep-04 20:46N 29°51' W 092°22'1 4.5
2017-Sep-04 20:26N 29°51' W 092°20'2 4.3
2017-Sep-04 19:56N 29°50' W 092°18'2 4.8
2017-Sep-04 19:31N 29°49' W 092°16'3 5.2
2017-Sep-04 19:01N 29°48' W 092°13'2 3.9
2017-Sep-04 18:30N 29°47' W 092°11'1 1.7
2017-Sep-04 18:01N 29°47' W 092°10'3 5.4
2017-Sep-04 17:30N 29°47' W 092°07'3 5.5
2017-Sep-04 17:01N 29°48' W 092°04'60 5.0
2017-Sep-04 05:02N 29°34' W 090°57'0 5.8
2017-Sep-04 05:00N 29°34' W 090°57'3 5.8
2017-Sep-04 04:30N 29°33' W 090°54'3 5.4
2017-Sep-04 04:00N 29°32' W 090°51'3 5.5
2017-Sep-04 03:30N 29°32' W 090°48'2 4.1
2017-Sep-04 03:00N 29°33' W 090°45'2 3.2
2017-Sep-04 02:31N 29°34' W 090°44'1 2.9
2017-Sep-04 02:01N 29°35' W 090°43'2 3.8
2017-Sep-04 01:31N 29°37' W 090°42'2 4.0
2017-Sep-04 01:01N 29°36' W 090°40'2 5.0
2017-Sep-04 00:30N 29°35' W 090°38'2 4.4
2017-Sep-04 00:00N 29°35' W 090°35'3 5.2
2017-Sep-03 23:30N 29°34' W 090°32'  

Dump ship's entire track history